sensor_id;sensor_type;location;lat;lon;timestamp;pressure;altitude;pressure_sealevel;temperature;humidity
17309;BME280;8772;42.804;23.426;2023-12-28T00:01:41;75652.34;;;-140.58;93.67
17309;BME280;8772;42.804;23.426;2023-12-28T00:04:08;75644.13;;;-140.58;96.97
17309;BME280;8772;42.804;23.426;2023-12-28T00:06:36;75644.13;;;-140.58;97.52
17309;BME280;8772;42.804;23.426;2023-12-28T00:09:03;75635.94;;;-140.58;97.34
17309;BME280;8772;42.804;23.426;2023-12-28T00:11:30;75635.94;;;-140.58;97.09
17309;BME280;8772;42.804;23.426;2023-12-28T00:13:57;75640.03;;;-140.58;96.24
17309;BME280;8772;42.804;23.426;2023-12-28T00:16:24;75635.94;;;-140.58;95.61
17309;BME280;8772;42.804;23.426;2023-12-28T00:18:51;75640.03;;;-140.58;94.76
17309;BME280;8772;42.804;23.426;2023-12-28T00:21:17;75640.03;;;-140.58;94.08
17309;BME280;8772;42.804;23.426;2023-12-28T00:23:46;75650.28;;;-140.58;93.34
17309;BME280;8772;42.804;23.426;2023-12-28T00:26:13;75658.50;;;-140.58;93.21
17309;BME280;8772;42.804;23.426;2023-12-28T00:28:39;75658.50;;;-140.58;93.46
17309;BME280;8772;42.804;23.426;2023-12-28T00:31:06;75644.13;;;-140.58;93.50
17309;BME280;8772;42.804;23.426;2023-12-28T00:33:33;75642.09;;;-140.58;93.23
17309;BME280;8772;42.804;23.426;2023-12-28T00:36:00;75652.34;;;-140.58;92.97
17309;BME280;8772;42.804;23.426;2023-12-28T00:38:27;75640.03;;;-140.58;94.17
17309;BME280;8772;42.804;23.426;2023-12-28T00:40:55;75627.72;;;-140.58;95.50
17309;BME280;8772;42.804;23.426;2023-12-28T00:43:22;75623.63;;;-140.58;95.72
17309;BME280;8772;42.804;23.426;2023-12-28T00:45:49;75629.78;;;-140.58;94.81
17309;BME280;8772;42.804;23.426;2023-12-28T00:48:16;75664.66;;;-140.58;93.23
17309;BME280;8772;42.804;23.426;2023-12-28T00:50:43;75676.97;;;-140.58;92.66
17309;BME280;8772;42.804;23.426;2023-12-28T00:53:09;75660.56;;;-140.58;92.32
17309;BME280;8772;42.804;23.426;2023-12-28T00:55:36;75662.63;;;-140.58;91.74
17309;BME280;8772;42.804;23.426;2023-12-28T00:58:05;75676.97;;;-140.58;90.95
17309;BME280;8772;42.804;23.426;2023-12-28T01:00:31;75681.09;;;-140.58;90.03
17309;BME280;8772;42.804;23.426;2023-12-28T01:06:20;75705.72;;;-140.58;90.71
17309;BME280;8772;42.804;23.426;2023-12-28T01:08:47;75697.50;;;-140.58;91.02
17309;BME280;8772;42.804;23.426;2023-12-28T01:11:14;75701.63;;;-140.58;90.75
17309;BME280;8772;42.804;23.426;2023-12-28T01:13:42;75701.63;;;-140.58;91.08
17309;BME280;8772;42.804;23.426;2023-12-28T01:16:09;75701.63;;;-140.58;91.84
17309;BME280;8772;42.804;23.426;2023-12-28T01:18:36;75713.94;;;-140.58;91.79
17309;BME280;8772;42.804;23.426;2023-12-28T01:21:03;75730.34;;;-140.58;91.70
17309;BME280;8772;42.804;23.426;2023-12-28T01:23:31;75718.03;;;-140.58;91.76
17309;BME280;8772;42.804;23.426;2023-12-28T01:25:59;75718.03;;;-140.58;91.55
17309;BME280;8772;42.804;23.426;2023-12-28T01:28:26;75728.28;;;-140.58;91.37
17309;BME280;8772;42.804;23.426;2023-12-28T01:30:55;75726.25;;;-140.58;90.88
17309;BME280;8772;42.804;23.426;2023-12-28T01:33:22;75722.13;;;-140.58;90.43
17309;BME280;8772;42.804;23.426;2023-12-28T01:35:48;75718.03;;;-140.58;89.64
17309;BME280;8772;42.804;23.426;2023-12-28T01:38:15;75736.50;;;-140.58;89.01
17309;BME280;8772;42.804;23.426;2023-12-28T01:40:44;75744.72;;;-140.58;89.99
17309;BME280;8772;42.804;23.426;2023-12-28T01:43:12;75730.34;;;-140.58;90.36
17309;BME280;8772;42.804;23.426;2023-12-28T01:45:38;75754.97;;;-140.58;90.91
17309;BME280;8772;42.804;23.426;2023-12-28T01:48:07;75746.78;;;-140.58;90.94
17309;BME280;8772;42.804;23.426;2023-12-28T01:50:35;75738.56;;;-140.58;90.63
17309;BME280;8772;42.804;23.426;2023-12-28T01:53:03;75750.88;;;-140.58;90.36
17309;BME280;8772;42.804;23.426;2023-12-28T01:55:30;75761.13;;;-140.58;90.47
17309;BME280;8772;42.804;23.426;2023-12-28T01:57:58;75761.13;;;-140.58;90.92
17309;BME280;8772;42.804;23.426;2023-12-28T02:00:25;75767.28;;;-140.58;91.23
17309;BME280;8772;42.804;23.426;2023-12-28T02:02:52;75771.41;;;-140.58;91.76
17309;BME280;8772;42.804;23.426;2023-12-28T02:05:21;75771.41;;;-140.58;92.08
17309;BME280;8772;42.804;23.426;2023-12-28T02:07:48;75789.88;;;-140.58;93.10
17309;BME280;8772;42.804;23.426;2023-12-28T02:10:15;75793.97;;;-140.58;93.84
17309;BME280;8772;42.804;23.426;2023-12-28T02:12:42;75791.94;;;-140.58;93.92
17309;BME280;8772;42.804;23.426;2023-12-28T02:15:09;75806.28;;;-140.58;93.28
17309;BME280;8772;42.804;23.426;2023-12-28T02:17:43;75804.25;;;-140.58;93.28
17309;BME280;8772;42.804;23.426;2023-12-28T02:20:12;75787.81;;;-140.58;93.60
17309;BME280;8772;42.804;23.426;2023-12-28T02:22:43;75804.25;;;-140.58;94.24
17309;BME280;8772;42.804;23.426;2023-12-28T02:25:12;75808.34;;;-140.58;94.42
17309;BME280;8772;42.804;23.426;2023-12-28T02:27:39;75812.44;;;-140.58;93.86
17309;BME280;8772;42.804;23.426;2023-12-28T02:30:08;75816.56;;;-140.58;93.45
17309;BME280;8772;42.804;23.426;2023-12-28T02:32:46;75812.44;;;-140.58;93.35
17309;BME280;8772;42.804;23.426;2023-12-28T02:35:17;75822.72;;;-140.58;93.34
17309;BME280;8772;42.804;23.426;2023-12-28T02:37:50;75802.19;;;-140.58;94.10
17309;BME280;8772;42.804;23.426;2023-12-28T02:40:19;75791.94;;;-140.58;94.27
17309;BME280;8772;42.804;23.426;2023-12-28T02:42:46;75800.13;;;-140.58;94.56
17309;BME280;8772;42.804;23.426;2023-12-28T02:45:13;75791.94;;;-140.58;94.80
17309;BME280;8772;42.804;23.426;2023-12-28T02:47:40;75785.78;;;-140.58;94.85
17309;BME280;8772;42.804;23.426;2023-12-28T02:50:07;75781.66;;;-140.58;96.85
17309;BME280;8772;42.804;23.426;2023-12-28T02:52:34;75767.28;;;-140.58;98.59
17309;BME280;8772;42.804;23.426;2023-12-28T02:55:01;75754.97;;;-140.58;98.97
17309;BME280;8772;42.804;23.426;2023-12-28T02:57:29;75759.09;;;-140.58;98.49
17309;BME280;8772;42.804;23.426;2023-12-28T02:59:56;75763.19;;;-140.58;98.35
17309;BME280;8772;42.804;23.426;2023-12-28T03:02:27;75763.19;;;-140.58;99.13
17309;BME280;8772;42.804;23.426;2023-12-28T03:04:54;75775.50;;;-140.58;99.45
17309;BME280;8772;42.804;23.426;2023-12-28T03:07:21;75754.97;;;-140.58;99.19
17309;BME280;8772;42.804;23.426;2023-12-28T03:09:48;75754.97;;;-140.58;98.19
17309;BME280;8772;42.804;23.426;2023-12-28T03:12:14;75761.13;;;-140.58;97.26
17309;BME280;8772;42.804;23.426;2023-12-28T03:14:43;75759.09;;;-140.58;96.66
17309;BME280;8772;42.804;23.426;2023-12-28T03:17:10;75783.72;;;-140.58;96.58
17309;BME280;8772;42.804;23.426;2023-12-28T03:19:38;75773.44;;;-140.58;97.36
17309;BME280;8772;42.804;23.426;2023-12-28T03:22:05;75783.72;;;-140.58;97.71
17309;BME280;8772;42.804;23.426;2023-12-28T03:24:32;75781.66;;;-140.58;98.58
17309;BME280;8772;42.804;23.426;2023-12-28T03:26:59;75777.56;;;-140.58;99.50
17309;BME280;8772;42.804;23.426;2023-12-28T03:29:27;75767.28;;;-140.58;100.00
17309;BME280;8772;42.804;23.426;2023-12-28T03:31:56;75757.03;;;-140.58;100.00
17309;BME280;8772;42.804;23.426;2023-12-28T03:34:23;75742.66;;;-140.58;100.00
17309;BME280;8772;42.804;23.426;2023-12-28T03:36:52;75740.63;;;-140.58;100.00
17309;BME280;8772;42.804;23.426;2023-12-28T03:39:18;75738.56;;;-140.58;100.00
17309;BME280;8772;42.804;23.426;2023-12-28T03:41:45;75738.56;;;-140.58;100.00
17309;BME280;8772;42.804;23.426;2023-12-28T03:44:13;75746.78;;;-140.58;100.00
17309;BME280;8772;42.804;23.426;2023-12-28T03:46:40;75759.09;;;-140.58;100.00
17309;BME280;8772;42.804;23.426;2023-12-28T03:49:08;75752.94;;;-140.58;100.00
17309;BME280;8772;42.804;23.426;2023-12-28T03:51:35;75750.88;;;-140.58;99.98
17309;BME280;8772;42.804;23.426;2023-12-28T03:54:02;75757.03;;;-140.58;97.90
17309;BME280;8772;42.804;23.426;2023-12-28T03:56:29;75754.97;;;-140.58;96.70
17309;BME280;8772;42.804;23.426;2023-12-28T03:58:58;75750.88;;;-140.58;96.28
17309;BME280;8772;42.804;23.426;2023-12-28T04:01:25;75759.09;;;-140.58;95.96
17309;BME280;8772;42.804;23.426;2023-12-28T04:03:52;75748.81;;;-140.58;95.77
17309;BME280;8772;42.804;23.426;2023-12-28T04:06:20;75754.97;;;-140.58;95.15
17309;BME280;8772;42.804;23.426;2023-12-28T04:08:47;75746.78;;;-140.58;94.77
17309;BME280;8772;42.804;23.426;2023-12-28T04:11:14;75744.72;;;-140.58;94.21
17309;BME280;8772;42.804;23.426;2023-12-28T04:13:41;75750.88;;;-140.58;93.06
17309;BME280;8772;42.804;23.426;2023-12-28T04:16:12;75754.97;;;-140.58;91.70
17309;BME280;8772;42.804;23.426;2023-12-28T04:18:39;75761.13;;;-140.58;90.55
17309;BME280;8772;42.804;23.426;2023-12-28T04:21:08;75769.34;;;-140.58;89.28
17309;BME280;8772;42.804;23.426;2023-12-28T04:23:36;75781.66;;;-140.58;88.92
17309;BME280;8772;42.804;23.426;2023-12-28T04:26:03;75779.63;;;-140.58;88.53
17309;BME280;8772;42.804;23.426;2023-12-28T04:28:31;75783.72;;;-140.58;88.69
17309;BME280;8772;42.804;23.426;2023-12-28T04:31:02;75787.81;;;-140.58;88.47
17309;BME280;8772;42.804;23.426;2023-12-28T04:33:29;75804.25;;;-140.58;87.73
17309;BME280;8772;42.804;23.426;2023-12-28T04:35:56;75802.19;;;-140.58;87.86
17309;BME280;8772;42.804;23.426;2023-12-28T04:38:23;75808.34;;;-140.58;87.44
17309;BME280;8772;42.804;23.426;2023-12-28T04:40:51;75816.56;;;-140.58;87.33
17309;BME280;8772;42.804;23.426;2023-12-28T04:43:18;75818.59;;;-140.58;87.50
17309;BME280;8772;42.804;23.426;2023-12-28T04:45:45;75820.66;;;-140.58;88.40
17309;BME280;8772;42.804;23.426;2023-12-28T04:48:13;75812.44;;;-140.58;88.71
17309;BME280;8772;42.804;23.426;2023-12-28T04:50:39;75822.72;;;-140.58;89.23
17309;BME280;8772;42.804;23.426;2023-12-28T04:53:06;75832.97;;;-140.58;89.34
17309;BME280;8772;42.804;23.426;2023-12-28T04:55:33;75826.81;;;-140.58;90.19
17309;BME280;8772;42.804;23.426;2023-12-28T04:58:01;75822.72;;;-140.58;90.62
17309;BME280;8772;42.804;23.426;2023-12-28T05:00:28;75814.50;;;-140.58;90.70
17309;BME280;8772;42.804;23.426;2023-12-28T05:02:55;75837.09;;;-140.58;90.47
17309;BME280;8772;42.804;23.426;2023-12-28T05:05:22;75839.13;;;-140.58;90.09
17309;BME280;8772;42.804;23.426;2023-12-28T05:07:49;75830.94;;;-140.58;89.54
17309;BME280;8772;42.804;23.426;2023-12-28T05:10:15;75832.97;;;-140.58;89.01
17309;BME280;8772;42.804;23.426;2023-12-28T05:12:42;75832.97;;;-140.58;88.80
17309;BME280;8772;42.804;23.426;2023-12-28T05:15:11;75837.09;;;-140.58;87.98
17309;BME280;8772;42.804;23.426;2023-12-28T05:17:38;75837.09;;;-140.58;87.52
17309;BME280;8772;42.804;23.426;2023-12-28T05:20:06;75849.41;;;-140.58;86.89
17309;BME280;8772;42.804;23.426;2023-12-28T05:22:33;75845.28;;;-140.58;87.01
17309;BME280;8772;42.804;23.426;2023-12-28T05:24:59;75843.25;;;-140.58;86.92
17309;BME280;8772;42.804;23.426;2023-12-28T05:27:26;75841.19;;;-140.58;86.71
17309;BME280;8772;42.804;23.426;2023-12-28T05:29:53;75851.44;;;-140.58;86.71
17309;BME280;8772;42.804;23.426;2023-12-28T05:32:21;75878.13;;;-140.58;87.25
17309;BME280;8772;42.804;23.426;2023-12-28T05:34:48;75886.34;;;-140.58;89.27
17309;BME280;8772;42.804;23.426;2023-12-28T05:37:16;75900.72;;;-140.58;90.67
17309;BME280;8772;42.804;23.426;2023-12-28T05:39:42;75898.66;;;-140.58;92.71
17309;BME280;8772;42.804;23.426;2023-12-28T05:42:10;75886.34;;;-140.58;94.20
17309;BME280;8772;42.804;23.426;2023-12-28T05:44:36;75880.19;;;-140.58;95.55
17309;BME280;8772;42.804;23.426;2023-12-28T05:47:03;75869.94;;;-140.58;96.50
17309;BME280;8772;42.804;23.426;2023-12-28T05:49:32;75861.72;;;-140.58;97.39
17309;BME280;8772;42.804;23.426;2023-12-28T05:51:58;75857.59;;;-140.58;97.61
17309;BME280;8772;42.804;23.426;2023-12-28T05:54:25;75837.09;;;-140.58;99.03
17309;BME280;8772;42.804;23.426;2023-12-28T05:56:52;75826.81;;;-140.58;99.74
17309;BME280;8772;42.804;23.426;2023-12-28T05:59:19;75810.41;;;-140.58;100.00
17309;BME280;8772;42.804;23.426;2023-12-28T06:01:47;75816.56;;;-140.58;100.00
17309;BME280;8772;42.804;23.426;2023-12-28T06:04:14;75810.41;;;-140.58;100.00
17309;BME280;8772;42.804;23.426;2023-12-28T06:06:42;75820.66;;;-140.58;99.77
17309;BME280;8772;42.804;23.426;2023-12-28T06:09:09;75810.41;;;-140.58;99.48
17309;BME280;8772;42.804;23.426;2023-12-28T06:11:37;75824.78;;;-140.58;98.79
17309;BME280;8772;42.804;23.426;2023-12-28T06:14:04;75835.03;;;-140.58;98.49
17309;BME280;8772;42.804;23.426;2023-12-28T06:16:30;75820.66;;;-140.58;98.09
17309;BME280;8772;42.804;23.426;2023-12-28T06:18:58;75822.72;;;-140.58;97.58
17309;BME280;8772;42.804;23.426;2023-12-28T06:21:26;75808.34;;;-140.58;97.03
17309;BME280;8772;42.804;23.426;2023-12-28T06:23:55;75816.56;;;-140.58;96.48
17309;BME280;8772;42.804;23.426;2023-12-28T06:26:22;75814.50;;;-140.58;96.15
17309;BME280;8772;42.804;23.426;2023-12-28T06:28:48;75818.59;;;-140.58;95.95
17309;BME280;8772;42.804;23.426;2023-12-28T06:31:15;75812.44;;;-140.58;95.85
17309;BME280;8772;42.804;23.426;2023-12-28T06:33:42;75808.34;;;-140.58;95.51
17309;BME280;8772;42.804;23.426;2023-12-28T06:36:10;75802.19;;;-140.58;95.27
17309;BME280;8772;42.804;23.426;2023-12-28T06:38:37;75796.03;;;-140.58;95.00
17309;BME280;8772;42.804;23.426;2023-12-28T06:41:11;75791.94;;;-140.58;95.14
17309;BME280;8772;42.804;23.426;2023-12-28T06:43:38;75779.63;;;-140.58;95.25
17309;BME280;8772;42.804;23.426;2023-12-28T06:46:05;75777.56;;;-140.58;94.96
17309;BME280;8772;42.804;23.426;2023-12-28T06:48:33;75771.41;;;-140.58;94.46
17309;BME280;8772;42.804;23.426;2023-12-28T06:51:00;75775.50;;;-140.58;94.08
17309;BME280;8772;42.804;23.426;2023-12-28T06:53:27;75771.41;;;-140.58;93.97
17309;BME280;8772;42.804;23.426;2023-12-28T06:55:54;75765.25;;;-140.58;93.81
17309;BME280;8772;42.804;23.426;2023-12-28T06:58:23;75767.28;;;-140.58;93.42
17309;BME280;8772;42.804;23.426;2023-12-28T07:00:49;75767.28;;;-140.58;93.22
17309;BME280;8772;42.804;23.426;2023-12-28T07:03:16;75759.09;;;-140.58;93.14
17309;BME280;8772;42.804;23.426;2023-12-28T07:05:43;75750.88;;;-140.58;93.03
17309;BME280;8772;42.804;23.426;2023-12-28T07:08:10;75738.56;;;-140.58;93.03
17309;BME280;8772;42.804;23.426;2023-12-28T07:10:37;75738.56;;;-140.58;93.02
17309;BME280;8772;42.804;23.426;2023-12-28T07:13:04;75730.34;;;-140.58;93.10
17309;BME280;8772;42.804;23.426;2023-12-28T07:15:32;75730.34;;;-140.58;93.17
17309;BME280;8772;42.804;23.426;2023-12-28T07:18:00;75722.13;;;-140.58;93.21
17309;BME280;8772;42.804;23.426;2023-12-28T07:20:27;75720.09;;;-140.58;93.33
17309;BME280;8772;42.804;23.426;2023-12-28T07:22:53;75713.94;;;-140.58;93.46
17309;BME280;8772;42.804;23.426;2023-12-28T07:25:20;75705.72;;;-140.58;93.60
17309;BME280;8772;42.804;23.426;2023-12-28T07:27:47;75701.63;;;-140.58;93.78
17309;BME280;8772;42.804;23.426;2023-12-28T07:30:14;75689.28;;;-140.58;93.73
17309;BME280;8772;42.804;23.426;2023-12-28T07:32:43;75687.25;;;-140.58;93.73
17309;BME280;8772;42.804;23.426;2023-12-28T07:35:11;75679.03;;;-140.58;93.81
17309;BME280;8772;42.804;23.426;2023-12-28T07:37:38;75676.97;;;-140.58;93.92
17309;BME280;8772;42.804;23.426;2023-12-28T07:40:06;75668.78;;;-140.58;93.77
17309;BME280;8772;42.804;23.426;2023-12-28T07:42:33;75668.78;;;-140.58;93.99
17309;BME280;8772;42.804;23.426;2023-12-28T07:45:01;75662.63;;;-140.58;93.81
17309;BME280;8772;42.804;23.426;2023-12-28T07:47:27;75650.28;;;-140.58;93.64
17309;BME280;8772;42.804;23.426;2023-12-28T07:49:56;75658.50;;;-140.58;93.57
17309;BME280;8772;42.804;23.426;2023-12-28T07:52:23;75648.25;;;-140.58;93.52
17309;BME280;8772;42.804;23.426;2023-12-28T07:54:49;75642.09;;;-140.58;93.30
17309;BME280;8772;42.804;23.426;2023-12-28T07:57:16;75640.03;;;-140.58;93.24
17309;BME280;8772;42.804;23.426;2023-12-28T07:59:43;75629.78;;;-140.58;93.29
17309;BME280;8772;42.804;23.426;2023-12-28T08:02:10;75627.72;;;-140.58;93.38
17309;BME280;8772;42.804;23.426;2023-12-28T08:04:37;75640.03;;;-140.58;93.32
17309;BME280;8772;42.804;23.426;2023-12-28T08:07:05;75625.66;;;-140.58;93.49
17309;BME280;8772;42.804;23.426;2023-12-28T08:09:32;75623.63;;;-140.58;93.42
17309;BME280;8772;42.804;23.426;2023-12-28T08:12:00;75623.63;;;-140.58;93.47
17309;BME280;8772;42.804;23.426;2023-12-28T08:14:28;75619.50;;;-140.58;93.21
17309;BME280;8772;42.804;23.426;2023-12-28T08:16:55;75619.50;;;-140.58;92.98
17309;BME280;8772;42.804;23.426;2023-12-28T08:19:21;75615.41;;;-140.58;92.82
17309;BME280;8772;42.804;23.426;2023-12-28T08:21:47;75615.41;;;-140.58;92.81
17309;BME280;8772;42.804;23.426;2023-12-28T08:24:15;75607.19;;;-140.58;92.71
17309;BME280;8772;42.804;23.426;2023-12-28T08:26:42;75611.31;;;-140.58;92.69
17309;BME280;8772;42.804;23.426;2023-12-28T08:29:09;75594.88;;;-140.58;92.54
17309;BME280;8772;42.804;23.426;2023-12-28T08:31:36;75584.63;;;-140.58;92.41
17309;BME280;8772;42.804;23.426;2023-12-28T08:34:03;75576.41;;;-140.58;92.50
17309;BME280;8772;42.804;23.426;2023-12-28T08:36:30;75578.47;;;-140.58;93.23
17309;BME280;8772;42.804;23.426;2023-12-28T08:38:57;75574.34;;;-140.58;94.52
17309;BME280;8772;42.804;23.426;2023-12-28T08:41:26;75560.00;;;-140.58;95.59
17309;BME280;8772;42.804;23.426;2023-12-28T08:43:53;75543.56;;;-140.58;96.25
17309;BME280;8772;42.804;23.426;2023-12-28T08:46:21;75537.41;;;-140.58;96.47
17309;BME280;8772;42.804;23.426;2023-12-28T08:48:48;75529.19;;;-140.58;96.85
17309;BME280;8772;42.804;23.426;2023-12-28T08:51:14;75512.78;;;-140.58;96.98
17309;BME280;8772;42.804;23.426;2023-12-28T08:53:41;75496.34;;;-140.58;96.85
17309;BME280;8772;42.804;23.426;2023-12-28T08:56:16;75500.47;;;-140.58;96.91
17309;BME280;8772;42.804;23.426;2023-12-28T08:58:45;75479.94;;;-140.58;96.82
17309;BME280;8772;42.804;23.426;2023-12-28T09:01:16;75471.72;;;-140.58;96.82
17309;BME280;8772;42.804;23.426;2023-12-28T09:03:44;75469.69;;;-140.58;96.83
17309;BME280;8772;42.804;23.426;2023-12-28T09:06:11;75467.63;;;-140.58;96.90
17309;BME280;8772;42.804;23.426;2023-12-28T09:08:41;75463.53;;;-140.58;97.31
17309;BME280;8772;42.804;23.426;2023-12-28T09:11:09;75455.31;;;-140.58;97.24
17309;BME280;8772;42.804;23.426;2023-12-28T09:13:36;75443.00;;;-140.58;96.71
17309;BME280;8772;42.804;23.426;2023-12-28T09:16:05;75434.78;;;-140.58;96.58
17309;BME280;8772;42.804;23.426;2023-12-28T09:18:32;75422.47;;;-140.58;96.27
17309;BME280;8772;42.804;23.426;2023-12-28T09:20:59;75406.06;;;-140.58;95.75
17309;BME280;8772;42.804;23.426;2023-12-28T09:23:25;75397.84;;;-140.58;95.07
17309;BME280;8772;42.804;23.426;2023-12-28T09:25:52;75377.31;;;-140.58;94.39
17309;BME280;8772;42.804;23.426;2023-12-28T09:28:19;75365.00;;;-140.58;93.34
17309;BME280;8772;42.804;23.426;2023-12-28T09:30:46;75346.53;;;-140.58;91.95
17309;BME280;8772;42.804;23.426;2023-12-28T09:33:14;75344.47;;;-140.58;91.05
17309;BME280;8772;42.804;23.426;2023-12-28T09:35:41;75340.38;;;-140.58;91.25
17309;BME280;8772;42.804;23.426;2023-12-28T09:38:09;75321.91;;;-140.58;91.37
17309;BME280;8772;42.804;23.426;2023-12-28T09:40:36;75309.59;;;-140.58;91.09
17309;BME280;8772;42.804;23.426;2023-12-28T09:43:10;75295.22;;;-140.58;90.94
17309;BME280;8772;42.804;23.426;2023-12-28T09:45:39;75282.91;;;-140.58;90.69
17309;BME280;8772;42.804;23.426;2023-12-28T09:48:06;75270.59;;;-140.58;90.72
17309;BME280;8772;42.804;23.426;2023-12-28T09:50:35;75256.22;;;-140.58;90.64
17309;BME280;8772;42.804;23.426;2023-12-28T09:53:02;75245.97;;;-140.58;90.85
17309;BME280;8772;42.804;23.426;2023-12-28T09:55:29;75235.72;;;-140.58;91.45
17309;BME280;8772;42.804;23.426;2023-12-28T09:57:57;75215.19;;;-140.58;91.65
17309;BME280;8772;42.804;23.426;2023-12-28T10:00:26;75200.81;;;-140.58;90.94
17309;BME280;8772;42.804;23.426;2023-12-28T10:02:53;75182.34;;;-140.58;90.33
17309;BME280;8772;42.804;23.426;2023-12-28T10:05:20;75174.13;;;-140.58;89.85
17309;BME280;8772;42.804;23.426;2023-12-28T10:07:49;75159.78;;;-140.58;89.16
17309;BME280;8772;42.804;23.426;2023-12-28T10:10:17;75137.19;;;-140.58;88.56
17309;BME280;8772;42.804;23.426;2023-12-28T10:12:46;75122.84;;;-140.58;87.75
17309;BME280;8772;42.804;23.426;2023-12-28T10:15:13;75110.53;;;-140.58;88.03
17309;BME280;8772;42.804;23.426;2023-12-28T10:17:40;75100.25;;;-140.58;88.27
17309;BME280;8772;42.804;23.426;2023-12-28T10:20:07;75085.91;;;-140.58;87.28
17309;BME280;8772;42.804;23.426;2023-12-28T10:22:35;75081.78;;;-140.58;86.21
17309;BME280;8772;42.804;23.426;2023-12-28T10:25:04;75067.44;;;-140.58;85.94
17309;BME280;8772;42.804;23.426;2023-12-28T10:27:31;75055.13;;;-140.58;85.76
17309;BME280;8772;42.804;23.426;2023-12-28T10:29:58;75042.78;;;-140.58;85.58
17309;BME280;8772;42.804;23.426;2023-12-28T10:32:25;75036.66;;;-140.58;85.63
17309;BME280;8772;42.804;23.426;2023-12-28T10:34:52;75007.91;;;-140.58;84.76
17309;BME280;8772;42.804;23.426;2023-12-28T10:37:20;75003.81;;;-140.58;84.80
17309;BME280;8772;42.804;23.426;2023-12-28T10:39:48;74991.50;;;-140.58;84.30
17309;BME280;8772;42.804;23.426;2023-12-28T10:42:25;74975.06;;;-140.58;83.54
17309;BME280;8772;42.804;23.426;2023-12-28T10:44:59;74962.75;;;-140.58;82.64
17309;BME280;8772;42.804;23.426;2023-12-28T10:47:28;74958.66;;;-140.58;82.96
17309;BME280;8772;42.804;23.426;2023-12-28T10:49:59;74950.44;;;-140.58;82.70
17309;BME280;8772;42.804;23.426;2023-12-28T10:52:29;74927.88;;;-140.58;82.15
17309;BME280;8772;42.804;23.426;2023-12-28T10:55:04;74913.50;;;-140.58;81.46
17309;BME280;8772;42.804;23.426;2023-12-28T10:57:40;74901.19;;;-140.58;81.65
17309;BME280;8772;42.804;23.426;2023-12-28T11:00:13;74893.00;;;-140.58;81.98
17309;BME280;8772;42.804;23.426;2023-12-28T11:02:45;74876.56;;;-140.58;80.71
17309;BME280;8772;42.804;23.426;2023-12-28T11:05:12;74868.38;;;-140.58;80.57
17309;BME280;8772;42.804;23.426;2023-12-28T11:07:41;74845.78;;;-140.58;80.18
17309;BME280;8772;42.804;23.426;2023-12-28T11:10:08;74835.53;;;-140.58;79.55
17309;BME280;8772;42.804;23.426;2023-12-28T11:12:37;74819.13;;;-140.58;78.74
17309;BME280;8772;42.804;23.426;2023-12-28T11:15:06;74815.00;;;-140.58;78.35
17309;BME280;8772;42.804;23.426;2023-12-28T11:17:35;74794.50;;;-140.58;77.28
17309;BME280;8772;42.804;23.426;2023-12-28T11:20:04;74784.22;;;-140.58;77.54
17309;BME280;8772;42.804;23.426;2023-12-28T11:22:33;74790.38;;;-140.58;77.78
17309;BME280;8772;42.804;23.426;2023-12-28T11:25:01;74765.75;;;-140.58;76.34
17309;BME280;8772;42.804;23.426;2023-12-28T11:27:33;74753.44;;;-140.58;76.16
17309;BME280;8772;42.804;23.426;2023-12-28T11:30:03;74741.13;;;-140.58;75.38
17309;BME280;8772;42.804;23.426;2023-12-28T11:32:32;74732.94;;;-140.58;74.92
17309;BME280;8772;42.804;23.426;2023-12-28T11:34:59;74728.81;;;-140.58;74.79
17309;BME280;8772;42.804;23.426;2023-12-28T11:37:27;74720.63;;;-140.58;74.64
17309;BME280;8772;42.804;23.426;2023-12-28T11:39:56;74716.50;;;-140.58;73.40
17309;BME280;8772;42.804;23.426;2023-12-28T11:42:25;74696.00;;;-140.58;73.68
17309;BME280;8772;42.804;23.426;2023-12-28T11:44:54;74691.91;;;-140.58;73.92
17309;BME280;8772;42.804;23.426;2023-12-28T11:47:24;74683.69;;;-140.58;72.29
17309;BME280;8772;42.804;23.426;2023-12-28T13:03:07;74178.94;;;-140.58;60.36
17309;BME280;8772;42.804;23.426;2023-12-28T13:05:35;74174.84;;;-140.58;59.25
17309;BME280;8772;42.804;23.426;2023-12-28T13:08:03;74170.72;;;-140.58;59.43
17309;BME280;8772;42.804;23.426;2023-12-28T13:10:30;74166.63;;;-140.58;58.87
17309;BME280;8772;42.804;23.426;2023-12-28T13:12:57;74154.31;;;-140.58;58.72
17309;BME280;8772;42.804;23.426;2023-12-28T13:15:25;74150.22;;;-140.58;58.23
17309;BME280;8772;42.804;23.426;2023-12-28T13:17:52;74144.06;;;-140.58;57.42
17309;BME280;8772;42.804;23.426;2023-12-28T13:20:20;74133.81;;;-140.58;57.62
17309;BME280;8772;42.804;23.426;2023-12-28T13:22:47;74137.91;;;-140.58;57.07
17309;BME280;8772;42.804;23.426;2023-12-28T13:25:14;74137.91;;;-140.58;56.34
17309;BME280;8772;42.804;23.426;2023-12-28T13:27:41;74133.81;;;-140.58;56.64
17309;BME280;8772;42.804;23.426;2023-12-28T13:30:09;74137.91;;;-140.58;56.37
17309;BME280;8772;42.804;23.426;2023-12-28T13:32:37;74137.91;;;-140.58;56.44
17309;BME280;8772;42.804;23.426;2023-12-28T13:35:04;74142.00;;;-140.58;56.21
17309;BME280;8772;42.804;23.426;2023-12-28T13:37:33;74142.00;;;-140.58;55.95
17309;BME280;8772;42.804;23.426;2023-12-28T13:40:00;74137.91;;;-140.58;56.15
17309;BME280;8772;42.804;23.426;2023-12-28T13:42:27;74160.47;;;-140.58;55.39
17309;BME280;8772;42.804;23.426;2023-12-28T13:44:54;74146.09;;;-140.58;55.65
17309;BME280;8772;42.804;23.426;2023-12-28T13:47:21;74156.38;;;-140.58;55.76
17309;BME280;8772;42.804;23.426;2023-12-28T13:49:47;74158.41;;;-140.58;55.97
17309;BME280;8772;42.804;23.426;2023-12-28T13:52:14;74154.31;;;-140.58;56.31
17309;BME280;8772;42.804;23.426;2023-12-28T13:54:43;74166.63;;;-140.58;55.97
17309;BME280;8772;42.804;23.426;2023-12-28T13:57:10;74170.72;;;-140.58;55.59
17309;BME280;8772;42.804;23.426;2023-12-28T13:59:37;74178.94;;;-140.58;55.21